Timberhurst, Indiana
Current Conditions -  °F | °C
As of 11:55 PM on Monday 20 Oct 2014 (Local Time) from KANQ Reporting Station
Overcast Overcast  
Wind Chill: 10°   Ceiling: 6000
Heat Index: 10°   Visibility: 10mi
Dew Point:   Wind: 7mph
Humidity: 82%   Direction: 330°NNW
Pressure: 29.92"   Gusts: NA
Location:  41.5677°N, 85.3125°W
Report Text: KANQ 210355Z AUTO 33006KT 10SM OVC060 10/07 A2992 RMK
Loading
Personal Weather Stations






























Interactive Weather Map
Tropical Storm Tracking
New forecast layout! Learn more

10-Day Weather Forecast

Advertisements
Track Severe Weather on mobile